sensor_id;sensor_type;location;lat;lon;timestamp;temperature;humidity
32107;DHT22;18622;51.998;10.440;2023-04-24T02:50:34;12.10;99.90
32107;DHT22;18622;51.998;10.440;2023-04-24T02:53:02;12.10;99.90
32107;DHT22;18622;51.998;10.440;2023-04-24T02:55:29;12.10;99.90
32107;DHT22;18622;51.998;10.440;2023-04-24T02:57:58;12.10;99.90
32107;DHT22;18622;51.998;10.440;2023-04-24T03:00:25;12.10;99.90
32107;DHT22;18622;51.998;10.440;2023-04-24T03:02:53;12.10;99.90
32107;DHT22;18622;51.998;10.440;2023-04-24T03:05:21;12.10;99.90
32107;DHT22;18622;51.998;10.440;2023-04-24T03:07:49;12.10;99.90
32107;DHT22;18622;51.998;10.440;2023-04-24T03:10:19;12.20;99.90
32107;DHT22;18622;51.998;10.440;2023-04-24T03:12:46;12.20;99.90
32107;DHT22;18622;51.998;10.440;2023-04-24T03:15:14;12.20;99.90
32107;DHT22;18622;51.998;10.440;2023-04-24T03:17:42;12.20;99.90
32107;DHT22;18622;51.998;10.440;2023-04-24T03:20:10;12.20;99.90
32107;DHT22;18622;51.998;10.440;2023-04-24T03:22:38;12.20;99.90
32107;DHT22;18622;51.998;10.440;2023-04-24T03:25:06;12.20;99.90
32107;DHT22;18622;51.998;10.440;2023-04-24T03:27:36;12.10;99.90
32107;DHT22;18622;51.998;10.440;2023-04-24T03:30:05;12.10;99.90
32107;DHT22;18622;51.998;10.440;2023-04-24T03:32:33;12.10;99.90
32107;DHT22;18622;51.998;10.440;2023-04-24T03:35:01;12.10;99.90
32107;DHT22;18622;51.998;10.440;2023-04-24T03:37:29;12.00;99.90
32107;DHT22;18622;51.998;10.440;2023-04-24T03:39:57;12.00;99.90
32107;DHT22;18622;51.998;10.440;2023-04-24T03:42:25;12.00;99.90
32107;DHT22;18622;51.998;10.440;2023-04-24T03:44:53;12.00;99.90
32107;DHT22;18622;51.998;10.440;2023-04-24T03:47:20;11.90;99.90
32107;DHT22;18622;51.998;10.440;2023-04-24T03:49:48;11.90;99.90
32107;DHT22;18622;51.998;10.440;2023-04-24T03:52:16;11.90;99.90
32107;DHT22;18622;51.998;10.440;2023-04-24T03:54:44;11.90;99.90
32107;DHT22;18622;51.998;10.440;2023-04-24T03:57:12;11.90;99.90
32107;DHT22;18622;51.998;10.440;2023-04-24T03:59:40;12.00;99.90
32107;DHT22;18622;51.998;10.440;2023-04-24T04:02:08;11.90;99.90
32107;DHT22;18622;51.998;10.440;2023-04-24T04:04:35;11.90;99.90
32107;DHT22;18622;51.998;10.440;2023-04-24T04:07:04;11.90;99.90
32107;DHT22;18622;51.998;10.440;2023-04-24T04:09:31;11.90;99.90
32107;DHT22;18622;51.998;10.440;2023-04-24T04:11:59;11.80;99.90
32107;DHT22;18622;51.998;10.440;2023-04-24T04:14:27;11.80;99.90
32107;DHT22;18622;51.998;10.440;2023-04-24T04:16:55;11.70;99.90
32107;DHT22;18622;51.998;10.440;2023-04-24T04:19:23;11.70;99.90
32107;DHT22;18622;51.998;10.440;2023-04-24T04:21:51;11.70;99.90
32107;DHT22;18622;51.998;10.440;2023-04-24T04:24:20;11.70;99.90
32107;DHT22;18622;51.998;10.440;2023-04-24T04:26:48;11.60;99.90
32107;DHT22;18622;51.998;10.440;2023-04-24T04:29:18;11.60;99.90
32107;DHT22;18622;51.998;10.440;2023-04-24T04:31:45;11.70;99.90
32107;DHT22;18622;51.998;10.440;2023-04-24T04:34:13;11.60;99.90
32107;DHT22;18622;51.998;10.440;2023-04-24T04:36:41;11.70;99.90
32107;DHT22;18622;51.998;10.440;2023-04-24T04:39:10;11.80;99.90
32107;DHT22;18622;51.998;10.440;2023-04-24T04:41:40;11.90;99.90
32107;DHT22;18622;51.998;10.440;2023-04-24T04:44:08;12.00;99.90
32107;DHT22;18622;51.998;10.440;2023-04-24T04:46:36;12.10;99.90
32107;DHT22;18622;51.998;10.440;2023-04-24T04:49:04;12.30;99.90
32107;DHT22;18622;51.998;10.440;2023-04-24T04:51:32;12.50;99.90
32107;DHT22;18622;51.998;10.440;2023-04-24T04:54:00;12.60;99.90
32107;DHT22;18622;51.998;10.440;2023-04-24T04:56:28;12.60;99.90
32107;DHT22;18622;51.998;10.440;2023-04-24T04:58:56;12.70;99.90
32107;DHT22;18622;51.998;10.440;2023-04-24T05:01:25;12.70;99.90
32107;DHT22;18622;51.998;10.440;2023-04-24T05:03:53;12.80;99.90
32107;DHT22;18622;51.998;10.440;2023-04-24T05:06:22;12.90;99.90
32107;DHT22;18622;51.998;10.440;2023-04-24T05:08:49;12.90;99.90
32107;DHT22;18622;51.998;10.440;2023-04-24T05:11:17;13.00;99.90
32107;DHT22;18622;51.998;10.440;2023-04-24T05:13:45;13.10;99.90
32107;DHT22;18622;51.998;10.440;2023-04-24T05:16:13;13.10;99.90
32107;DHT22;18622;51.998;10.440;2023-04-24T05:18:41;13.20;99.90
32107;DHT22;18622;51.998;10.440;2023-04-24T05:21:09;13.30;99.90
32107;DHT22;18622;51.998;10.440;2023-04-24T05:23:36;13.40;99.90
32107;DHT22;18622;51.998;10.440;2023-04-24T05:26:04;13.50;99.90
32107;DHT22;18622;51.998;10.440;2023-04-24T05:28:32;13.60;99.70
32107;DHT22;18622;51.998;10.440;2023-04-24T14:49:36;13.80;76.00
32107;DHT22;18622;51.998;10.440;2023-04-24T14:52:04;13.00;79.60
32107;DHT22;18622;51.998;10.440;2023-04-24T14:54:31;12.50;83.10
32107;DHT22;18622;51.998;10.440;2023-04-24T14:56:59;12.30;86.10
32107;DHT22;18622;51.998;10.440;2023-04-24T14:59:31;12.30;88.40
32107;DHT22;18622;51.998;10.440;2023-04-24T15:01:58;12.40;90.60
32107;DHT22;18622;51.998;10.440;2023-04-24T15:04:27;12.70;91.20
32107;DHT22;18622;51.998;10.440;2023-04-24T15:06:55;12.90;90.80
32107;DHT22;18622;51.998;10.440;2023-04-24T15:09:24;13.00;91.20
32107;DHT22;18622;51.998;10.440;2023-04-24T15:11:53;13.20;91.30
32107;DHT22;18622;51.998;10.440;2023-04-24T15:14:21;13.40;90.40
32107;DHT22;18622;51.998;10.440;2023-04-24T15:16:49;13.60;88.50
32107;DHT22;18622;51.998;10.440;2023-04-24T15:19:16;13.50;88.30
32107;DHT22;18622;51.998;10.440;2023-04-24T15:21:44;13.50;89.20
32107;DHT22;18622;51.998;10.440;2023-04-24T15:24:12;13.30;88.70
32107;DHT22;18622;51.998;10.440;2023-04-24T15:26:40;13.10;89.00
32107;DHT22;18622;51.998;10.440;2023-04-24T15:29:08;12.90;89.70
32107;DHT22;18622;51.998;10.440;2023-04-24T15:31:35;12.80;90.00
32107;DHT22;18622;51.998;10.440;2023-04-24T15:34:05;12.60;90.50
32107;DHT22;18622;51.998;10.440;2023-04-24T15:36:33;12.50;90.90
32107;DHT22;18622;51.998;10.440;2023-04-24T15:39:02;12.30;91.20
32107;DHT22;18622;51.998;10.440;2023-04-24T15:41:29;12.10;91.90
32107;DHT22;18622;51.998;10.440;2023-04-24T15:43:58;12.00;92.50
32107;DHT22;18622;51.998;10.440;2023-04-24T15:46:26;11.90;93.30
32107;DHT22;18622;51.998;10.440;2023-04-24T15:48:53;11.80;93.90
32107;DHT22;18622;51.998;10.440;2023-04-24T15:51:21;11.70;94.40
32107;DHT22;18622;51.998;10.440;2023-04-24T15:53:49;11.70;95.00
32107;DHT22;18622;51.998;10.440;2023-04-24T15:56:17;11.50;95.70
32107;DHT22;18622;51.998;10.440;2023-04-24T15:58:46;11.30;96.80
32107;DHT22;18622;51.998;10.440;2023-04-24T16:01:13;11.30;97.60
32107;DHT22;18622;51.998;10.440;2023-04-24T16:03:42;11.20;98.00
32107;DHT22;18622;51.998;10.440;2023-04-24T16:06:10;11.20;98.20
32107;DHT22;18622;51.998;10.440;2023-04-24T16:08:37;11.20;98.60
32107;DHT22;18622;51.998;10.440;2023-04-24T16:11:05;11.20;98.50
32107;DHT22;18622;51.998;10.440;2023-04-24T16:13:33;11.20;98.60
32107;DHT22;18622;51.998;10.440;2023-04-24T16:16:01;11.20;99.00
32107;DHT22;18622;51.998;10.440;2023-04-24T16:18:29;11.20;99.30
32107;DHT22;18622;51.998;10.440;2023-04-24T16:20:57;11.10;99.70
32107;DHT22;18622;51.998;10.440;2023-04-24T16:23:25;11.00;99.90
32107;DHT22;18622;51.998;10.440;2023-04-24T16:25:52;10.80;99.90
32107;DHT22;18622;51.998;10.440;2023-04-24T16:28:21;10.60;99.90
32107;DHT22;18622;51.998;10.440;2023-04-24T16:30:48;10.50;99.90
32107;DHT22;18622;51.998;10.440;2023-04-24T16:33:16;10.50;99.90
32107;DHT22;18622;51.998;10.440;2023-04-24T16:35:44;10.50;99.90
32107;DHT22;18622;51.998;10.440;2023-04-24T16:38:12;10.50;99.90
32107;DHT22;18622;51.998;10.440;2023-04-24T16:40:40;10.60;99.90
32107;DHT22;18622;51.998;10.440;2023-04-24T16:43:08;10.50;99.90
32107;DHT22;18622;51.998;10.440;2023-04-24T16:45:36;10.50;99.90
32107;DHT22;18622;51.998;10.440;2023-04-24T16:48:04;10.60;99.90
32107;DHT22;18622;51.998;10.440;2023-04-24T16:50:31;10.60;99.90
32107;DHT22;18622;51.998;10.440;2023-04-24T16:52:59;10.60;99.90
32107;DHT22;18622;51.998;10.440;2023-04-24T16:55:27;10.50;99.90
32107;DHT22;18622;51.998;10.440;2023-04-24T16:57:55;10.50;99.90
32107;DHT22;18622;51.998;10.440;2023-04-24T17:00:23;10.40;99.90
32107;DHT22;18622;51.998;10.440;2023-04-24T17:02:51;10.40;99.90
32107;DHT22;18622;51.998;10.440;2023-04-24T17:05:18;10.40;99.90
32107;DHT22;18622;51.998;10.440;2023-04-24T17:07:51;10.50;99.90
32107;DHT22;18622;51.998;10.440;2023-04-24T17:10:18;10.50;99.90
32107;DHT22;18622;51.998;10.440;2023-04-24T17:12:46;10.50;99.90
32107;DHT22;18622;51.998;10.440;2023-04-24T17:15:14;10.60;99.90
32107;DHT22;18622;51.998;10.440;2023-04-24T17:17:42;10.70;99.90
32107;DHT22;18622;51.998;10.440;2023-04-24T17:20:12;10.70;99.90
32107;DHT22;18622;51.998;10.440;2023-04-24T17:22:39;10.70;99.90
32107;DHT22;18622;51.998;10.440;2023-04-24T17:25:07;10.80;99.90
32107;DHT22;18622;51.998;10.440;2023-04-24T17:27:35;10.80;99.90
32107;DHT22;18622;51.998;10.440;2023-04-24T17:30:04;10.80;99.90
32107;DHT22;18622;51.998;10.440;2023-04-24T17:32:31;10.90;99.90
32107;DHT22;18622;51.998;10.440;2023-04-24T17:34:59;10.90;99.90
32107;DHT22;18622;51.998;10.440;2023-04-24T17:37:27;10.90;99.90
32107;DHT22;18622;51.998;10.440;2023-04-24T17:39:55;10.90;99.90
32107;DHT22;18622;51.998;10.440;2023-04-24T17:42:23;10.90;99.90
32107;DHT22;18622;51.998;10.440;2023-04-24T17:44:51;10.90;99.90
32107;DHT22;18622;51.998;10.440;2023-04-24T17:47:19;10.90;99.90
32107;DHT22;18622;51.998;10.440;2023-04-24T17:49:47;11.00;99.90
32107;DHT22;18622;51.998;10.440;2023-04-24T17:52:15;10.90;99.90
32107;DHT22;18622;51.998;10.440;2023-04-24T17:54:43;10.90;99.90
32107;DHT22;18622;51.998;10.440;2023-04-24T17:57:11;10.80;99.90
32107;DHT22;18622;51.998;10.440;2023-04-24T17:59:39;10.80;99.90
32107;DHT22;18622;51.998;10.440;2023-04-24T18:02:07;10.70;99.90
32107;DHT22;18622;51.998;10.440;2023-04-24T18:04:35;10.80;99.90
32107;DHT22;18622;51.998;10.440;2023-04-24T18:07:04;10.70;99.90
32107;DHT22;18622;51.998;10.440;2023-04-24T18:09:32;10.70;99.90
32107;DHT22;18622;51.998;10.440;2023-04-24T18:12:00;10.70;99.90
32107;DHT22;18622;51.998;10.440;2023-04-24T18:14:28;10.60;99.90
32107;DHT22;18622;51.998;10.440;2023-04-24T18:16:56;10.60;99.90
32107;DHT22;18622;51.998;10.440;2023-04-24T18:19:24;10.60;99.90
32107;DHT22;18622;51.998;10.440;2023-04-24T18:21:52;10.50;99.90
32107;DHT22;18622;51.998;10.440;2023-04-24T18:24:19;10.50;99.90
32107;DHT22;18622;51.998;10.440;2023-04-24T18:26:48;10.50;99.90
32107;DHT22;18622;51.998;10.440;2023-04-24T18:29:16;10.40;99.90
32107;DHT22;18622;51.998;10.440;2023-04-24T18:31:43;10.40;99.90
32107;DHT22;18622;51.998;10.440;2023-04-24T18:34:11;10.40;99.90
32107;DHT22;18622;51.998;10.440;2023-04-24T18:36:39;10.30;99.90
32107;DHT22;18622;51.998;10.440;2023-04-24T18:39:07;10.30;99.90
32107;DHT22;18622;51.998;10.440;2023-04-24T18:41:35;10.30;99.90
32107;DHT22;18622;51.998;10.440;2023-04-24T18:44:02;10.30;99.90
32107;DHT22;18622;51.998;10.440;2023-04-24T18:46:30;10.30;99.90
32107;DHT22;18622;51.998;10.440;2023-04-24T18:48:59;10.30;99.90
32107;DHT22;18622;51.998;10.440;2023-04-24T18:51:27;10.30;99.90
32107;DHT22;18622;51.998;10.440;2023-04-24T18:53:55;10.30;99.90
32107;DHT22;18622;51.998;10.440;2023-04-24T18:56:23;10.30;99.90
32107;DHT22;18622;51.998;10.440;2023-04-24T18:58:51;10.30;99.90
32107;DHT22;18622;51.998;10.440;2023-04-24T19:01:21;10.20;99.90
32107;DHT22;18622;51.998;10.440;2023-04-24T19:03:48;10.20;99.90
32107;DHT22;18622;51.998;10.440;2023-04-24T19:06:16;10.20;99.90
32107;DHT22;18622;51.998;10.440;2023-04-24T19:08:44;10.20;99.90
32107;DHT22;18622;51.998;10.440;2023-04-24T19:11:13;10.30;99.90
32107;DHT22;18622;51.998;10.440;2023-04-24T19:13:40;10.30;99.90
32107;DHT22;18622;51.998;10.440;2023-04-24T19:16:08;10.20;99.90
32107;DHT22;18622;51.998;10.440;2023-04-24T19:18:36;10.10;99.90
32107;DHT22;18622;51.998;10.440;2023-04-24T19:21:04;9.90;99.90
32107;DHT22;18622;51.998;10.440;2023-04-24T19:23:32;9.90;99.90
32107;DHT22;18622;51.998;10.440;2023-04-24T19:26:02;9.70;99.90
32107;DHT22;18622;51.998;10.440;2023-04-24T19:28:30;9.70;99.90
32107;DHT22;18622;51.998;10.440;2023-04-24T19:30:58;9.70;99.90
32107;DHT22;18622;51.998;10.440;2023-04-24T19:33:26;9.70;99.90
32107;DHT22;18622;51.998;10.440;2023-04-24T19:35:54;9.60;99.90
32107;DHT22;18622;51.998;10.440;2023-04-24T19:38:22;9.50;99.90
32107;DHT22;18622;51.998;10.440;2023-04-24T19:40:50;9.40;99.90
32107;DHT22;18622;51.998;10.440;2023-04-24T19:43:18;9.30;99.90
32107;DHT22;18622;51.998;10.440;2023-04-24T19:45:45;9.30;99.90
32107;DHT22;18622;51.998;10.440;2023-04-24T19:48:13;9.20;99.90
32107;DHT22;18622;51.998;10.440;2023-04-24T19:50:41;9.20;99.90
32107;DHT22;18622;51.998;10.440;2023-04-24T19:53:09;9.10;99.90
32107;DHT22;18622;51.998;10.440;2023-04-24T19:55:37;9.20;99.90
32107;DHT22;18622;51.998;10.440;2023-04-24T19:58:05;9.10;99.90
32107;DHT22;18622;51.998;10.440;2023-04-24T20:00:33;9.10;99.90
32107;DHT22;18622;51.998;10.440;2023-04-24T20:03:01;9.20;99.90
32107;DHT22;18622;51.998;10.440;2023-04-24T20:05:29;9.20;99.90
32107;DHT22;18622;51.998;10.440;2023-04-24T20:07:57;9.20;99.90
32107;DHT22;18622;51.998;10.440;2023-04-24T20:10:24;9.20;99.90
32107;DHT22;18622;51.998;10.440;2023-04-24T20:12:53;9.30;99.90
32107;DHT22;18622;51.998;10.440;2023-04-24T20:15:21;9.20;99.90
32107;DHT22;18622;51.998;10.440;2023-04-24T20:17:48;9.20;99.90
32107;DHT22;18622;51.998;10.440;2023-04-24T20:20:16;9.20;99.90
32107;DHT22;18622;51.998;10.440;2023-04-24T20:22:44;9.10;99.90
32107;DHT22;18622;51.998;10.440;2023-04-24T20:25:12;9.00;99.90
32107;DHT22;18622;51.998;10.440;2023-04-24T20:27:40;8.90;99.90
32107;DHT22;18622;51.998;10.440;2023-04-24T20:30:09;8.80;99.90
32107;DHT22;18622;51.998;10.440;2023-04-24T20:32:38;8.80;99.90
32107;DHT22;18622;51.998;10.440;2023-04-24T20:35:06;8.80;99.90
32107;DHT22;18622;51.998;10.440;2023-04-24T20:37:34;8.70;99.90
32107;DHT22;18622;51.998;10.440;2023-04-24T20:40:02;8.70;99.90
32107;DHT22;18622;51.998;10.440;2023-04-24T20:42:34;8.70;99.90
32107;DHT22;18622;51.998;10.440;2023-04-24T20:45:02;8.60;99.90
